Time;durP1;ratioP1;P1;durP2;ratioP2;P2;SDS_P1;SDS_P2;PMS_P1;PMS_P2;Temp;Humidity;BMP_temperature;BMP_pressure;BME280_temperature;BME280_humidity;BME280_pressure;Samples;Min_cycle;Max_cycle;Signal;HPM_P1;HPM_P2
2022/05/26 00:01:32;;;;;;;2.50;1.00;;;15.50;99.90;;;;;;5051549;28;20216;-64
2022/05/26 00:03:59;;;;;;;2.83;0.87;;;15.50;99.90;;;;;;5051162;28;20197;-62
2022/05/26 00:06:26;;;;;;;4.03;1.07;;;15.50;99.90;;;;;;5051503;28;20202;-63
2022/05/26 00:08:53;;;;;;;2.70;1.10;;;15.60;99.90;;;;;;5051526;28;20202;-63
2022/05/26 00:11:25;;;;;;;2.00;1.30;;;15.70;99.90;;;;;;5051285;28;20764;-64
2022/05/26 00:13:51;;;;;;;1.60;1.00;;;15.80;99.90;;;;;;5051180;28;20206;-64
2022/05/26 00:16:18;;;;;;;2.80;1.27;;;15.80;99.90;;;;;;5051153;28;20214;-64
2022/05/26 00:18:45;;;;;;;3.43;1.10;;;16.00;99.90;;;;;;5051209;28;20309;-65
2022/05/26 00:21:12;;;;;;;2.67;1.30;;;16.10;99.90;;;;;;5051407;28;20256;-64
2022/05/26 00:23:39;;;;;;;1.80;1.20;;;16.20;99.90;;;;;;5054011;28;20316;-64
2022/05/26 00:26:05;;;;;;;3.17;1.40;;;16.30;99.90;;;;;;5054648;28;20283;-64
2022/05/26 00:28:34;;;;;;;2.33;1.10;;;16.30;99.90;;;;;;5054915;28;20225;-64
2022/05/26 00:31:00;;;;;;;3.93;1.07;;;16.40;99.90;;;;;;5054707;28;20206;-64
2022/05/26 00:33:28;;;;;;;1.70;1.17;;;16.50;99.90;;;;;;5054666;28;20221;-63
2022/05/26 00:35:54;;;;;;;1.30;1.07;;;16.60;99.90;;;;;;5054844;28;20210;-64
2022/05/26 00:38:22;;;;;;;2.80;1.20;;;16.60;99.90;;;;;;5054552;28;20897;-64
2022/05/26 00:40:48;;;;;;;1.80;0.90;;;16.60;99.90;;;;;;5054529;28;20629;-64
2022/05/26 00:43:15;;;;;;;1.60;0.80;;;16.70;99.90;;;;;;5054779;28;20198;-64
2022/05/26 00:45:52;;;;;;;1.67;0.80;;;16.70;99.80;;;;;;5054388;28;20251;-65
2022/05/26 00:48:23;;;;;;;2.80;0.93;;;16.80;99.80;;;;;;5054469;28;20577;-64
2022/05/26 00:50:54;;;;;;;3.27;0.80;;;16.70;99.60;;;;;;5054395;28;20202;-62
2022/05/26 00:53:27;;;;;;;2.97;0.87;;;16.70;99.60;;;;;;5054101;28;20209;-63
2022/05/26 00:55:58;;;;;;;1.33;0.60;;;16.70;99.60;;;;;;5054486;28;20213;-62
2022/05/26 00:58:29;;;;;;;1.60;0.93;;;16.60;99.60;;;;;;5054020;28;20728;-62
2022/05/26 01:01:00;;;;;;;1.93;0.80;;;16.60;99.60;;;;;;5054065;28;20708;-63
2022/05/26 01:03:32;;;;;;;1.77;0.80;;;16.60;99.60;;;;;;5054056;28;20205;-63
2022/05/26 01:06:02;;;;;;;1.47;0.90;;;16.50;99.70;;;;;;5054410;28;20217;-63
2022/05/26 01:08:35;;;;;;;1.87;0.70;;;16.50;99.80;;;;;;5054024;28;20237;-63
2022/05/26 01:11:02;;;;;;;1.47;0.70;;;16.50;99.90;;;;;;5054255;28;20229;-63
2022/05/26 01:13:31;;;;;;;0.83;0.70;;;16.40;99.90;;;;;;5053924;28;20205;-63
2022/05/26 01:16:09;;;;;;;1.53;0.53;;;16.40;99.90;;;;;;5054122;28;20221;-63
2022/05/26 01:18:43;;;;;;;1.10;0.70;;;16.40;99.90;;;;;;5053710;28;20233;-63
2022/05/26 01:21:18;;;;;;;1.43;0.80;;;16.30;99.90;;;;;;5053789;28;20224;-64
2022/05/26 01:24:26;;;;;;;2.53;0.83;;;16.30;99.90;;;;;;5053635;28;20213;-62
2022/05/26 01:27:24;;;;;;;1.43;0.80;;;16.30;99.90;;;;;;5053910;28;20252;-63
2022/05/26 01:30:24;;;;;;;1.63;1.00;;;16.40;99.90;;;;;;5052821;28;20213;-63
2022/05/26 01:33:16;;;;;;;2.27;0.70;;;16.30;99.90;;;;;;5050093;28;20201;-62
2022/05/26 01:35:55;;;;;;;2.87;1.00;;;16.30;99.90;;;;;;5053077;28;20209;-63
2022/05/26 01:38:29;;;;;;;2.00;0.93;;;16.30;99.90;;;;;;5053392;28;20267;-63
2022/05/26 01:41:02;;;;;;;1.90;1.00;;;16.30;99.90;;;;;;5053592;28;20233;-63
2022/05/26 01:43:41;;;;;;;1.77;0.90;;;16.30;99.90;;;;;;5053104;28;20739;-62
2022/05/26 01:46:15;;;;;;;1.23;0.77;;;16.20;99.90;;;;;;5053340;28;20213;-63
2022/05/26 01:48:47;;;;;;;1.93;0.50;;;16.20;99.90;;;;;;5053460;28;20279;-63
2022/05/26 01:51:17;;;;;;;2.67;0.93;;;16.10;99.90;;;;;;5053410;28;20201;-63
2022/05/26 01:53:52;;;;;;;1.57;0.70;;;16.00;99.90;;;;;;5053053;28;20659;-64
2022/05/26 01:56:26;;;;;;;1.90;0.80;;;15.90;99.90;;;;;;5053115;28;20212;-64
2022/05/26 01:58:58;;;;;;;1.57;0.70;;;15.80;99.90;;;;;;5053409;28;20206;-64
2022/05/26 02:01:29;;;;;;;0.80;0.67;;;15.70;99.90;;;;;;5052960;28;20705;-63
2022/05/26 02:03:59;;;;;;;2.07;0.73;;;15.60;99.90;;;;;;5053058;28;20647;-63
2022/05/26 02:06:32;;;;;;;1.23;0.80;;;15.50;99.90;;;;;;5053307;28;20263;-64
2022/05/26 02:09:06;;;;;;;2.20;0.70;;;15.40;99.90;;;;;;5053367;28;20259;-64
2022/05/26 02:11:36;;;;;;;1.13;0.83;;;15.30;99.90;;;;;;5053158;28;20259;-64
2022/05/26 02:14:09;;;;;;;0.80;0.70;;;15.20;99.90;;;;;;5052698;28;20564;-64
2022/05/26 02:16:42;;;;;;;2.17;0.73;;;15.10;99.90;;;;;;5052761;28;20582;-63
2022/05/26 02:19:15;;;;;;;2.83;0.80;;;15.10;99.90;;;;;;5053053;28;20301;-63
2022/05/26 02:21:46;;;;;;;3.40;0.80;;;15.00;99.90;;;;;;5052802;28;20214;-63
2022/05/26 02:24:21;;;;;;;1.33;0.93;;;15.00;99.90;;;;;;5052863;28;20227;-64
2022/05/26 02:26:47;;;;;;;2.53;0.70;;;15.00;99.90;;;;;;5052563;28;20735;-63
2022/05/26 02:31:59;;;;;;;4.37;0.80;;;14.90;99.90;;;;;;5052409;28;20259;-63
2022/05/26 02:34:28;;;;;;;2.00;0.83;;;14.90;99.90;;;;;;5052550;28;20209;-63
2022/05/26 02:36:57;;;;;;;2.77;0.90;;;14.90;99.90;;;;;;5052362;28;20649;-64
2022/05/26 02:39:24;;;;;;;1.73;0.70;;;14.80;99.90;;;;;;5052463;28;20618;-64
2022/05/26 02:41:54;;;;;;;1.73;0.90;;;14.80;99.90;;;;;;5052260;28;20205;-64
2022/05/26 02:44:21;;;;;;;1.70;0.63;;;14.80;99.90;;;;;;5052831;28;20205;-64
2022/05/26 02:46:59;;;;;;;2.47;1.00;;;14.80;99.90;;;;;;5052062;28;20644;-64
2022/05/26 02:49:40;;;;;;;1.83;0.87;;;14.70;99.90;;;;;;5052415;28;20206;-64
2022/05/26 02:52:18;;;;;;;1.43;0.80;;;14.60;99.90;;;;;;5051975;28;20240;-64
2022/05/26 02:54:56;;;;;;;1.53;0.90;;;14.60;99.90;;;;;;5052118;28;20756;-63
2022/05/26 02:57:27;;;;;;;2.97;1.17;;;14.60;99.90;;;;;;5052203;28;20225;-63
2022/05/26 03:00:01;;;;;;;4.40;1.03;;;14.50;99.90;;;;;;5052043;28;20717;-64
2022/05/26 03:02:37;;;;;;;2.27;0.80;;;14.50;99.90;;;;;;5051978;28;20209;-64
2022/05/26 03:05:11;;;;;;;3.23;0.90;;;14.50;99.90;;;;;;5052099;28;20267;-64
2022/05/26 03:07:42;;;;;;;1.63;0.70;;;14.40;99.90;;;;;;5052029;28;20225;-63
2022/05/26 03:10:10;;;;;;;2.17;0.80;;;14.40;99.90;;;;;;5052120;28;20205;-64
2022/05/26 03:12:37;;;;;;;2.57;1.00;;;14.30;99.90;;;;;;5051660;28;20665;-64
2022/05/26 03:15:07;;;;;;;2.87;1.00;;;14.30;99.90;;;;;;5051947;28;20209;-64
2022/05/26 03:17:34;;;;;;;2.67;0.70;;;14.20;99.90;;;;;;5051714;28;20229;-64
2022/05/26 03:20:01;;;;;;;3.77;1.07;;;14.20;99.90;;;;;;5051604;28;20229;-64
2022/05/26 03:22:29;;;;;;;4.03;1.00;;;14.20;99.90;;;;;;5051684;28;20213;-64
2022/05/26 03:24:55;;;;;;;2.23;0.80;;;14.20;99.90;;;;;;5051915;28;20205;-63
2022/05/26 03:27:22;;;;;;;2.93;0.90;;;14.10;99.90;;;;;;5051803;28;20248;-64
2022/05/26 03:29:49;;;;;;;1.80;1.00;;;14.10;99.90;;;;;;5051736;28;20205;-64
2022/05/26 03:32:16;;;;;;;2.20;0.77;;;14.10;99.90;;;;;;5051358;28;20632;-63
2022/05/26 03:42:58;;;;;;;2.33;0.97;;;14.10;99.90;;;;;;5051616;28;20695;-63
2022/05/26 03:45:26;;;;;;;2.50;1.50;;;14.20;99.90;;;;;;5052051;28;20233;-64
2022/05/26 03:47:52;;;;;;;3.40;1.07;;;14.20;99.90;;;;;;5051721;28;20713;-64
2022/05/26 03:50:20;;;;;;;5.47;1.63;;;14.30;99.90;;;;;;5051635;28;20232;-65
2022/05/26 03:52:46;;;;;;;1.97;1.07;;;14.40;99.90;;;;;;5051365;28;20206;-64
2022/05/26 03:55:15;;;;;;;2.70;1.00;;;14.50;99.90;;;;;;5051458;28;20213;-64
2022/05/26 03:57:43;;;;;;;3.17;0.90;;;14.60;99.90;;;;;;5053331;28;20229;-64
2022/05/26 04:00:11;;;;;;;1.00;0.80;;;14.70;99.90;;;;;;5055670;28;20252;-64
2022/05/26 04:02:38;;;;;;;1.40;0.90;;;14.90;99.90;;;;;;5055536;28;20212;-64
2022/05/26 04:05:05;;;;;;;3.90;1.10;;;14.90;99.90;;;;;;5055767;28;20288;-63
2022/05/26 04:07:32;;;;;;;3.30;0.97;;;15.10;99.90;;;;;;5055504;28;20713;-63
2022/05/26 04:09:59;;;;;;;2.97;1.20;;;15.10;99.90;;;;;;5055228;28;20578;-63
2022/05/26 04:12:27;;;;;;;3.37;1.10;;;15.20;99.90;;;;;;5055332;28;20267;-64
2022/05/26 04:14:54;;;;;;;1.97;1.03;;;15.20;99.90;;;;;;5055646;28;20271;-64
2022/05/26 04:17:20;;;;;;;1.80;1.13;;;15.20;99.90;;;;;;5055282;28;20241;-64
2022/05/26 04:19:48;;;;;;;1.83;1.03;;;15.20;99.90;;;;;;5055207;28;20212;-63
2022/05/26 04:22:18;;;;;;;3.53;0.70;;;15.20;99.90;;;;;;5054752;28;20587;-63
2022/05/26 04:24:47;;;;;;;1.93;1.00;;;15.20;99.90;;;;;;5055201;28;20259;-63
2022/05/26 04:27:14;;;;;;;4.20;1.37;;;15.30;99.90;;;;;;5054989;28;20226;-63
2022/05/26 04:29:42;;;;;;;1.53;0.60;;;15.40;99.90;;;;;;5055031;28;20283;-64
2022/05/26 04:32:09;;;;;;;1.53;0.80;;;15.40;99.90;;;;;;5054750;28;20279;-64
2022/05/26 04:34:37;;;;;;;1.37;0.60;;;15.40;99.90;;;;;;5054829;28;20259;-64
2022/05/26 04:37:04;;;;;;;4.77;0.77;;;15.50;99.90;;;;;;5054945;28;20225;-63
2022/05/26 04:39:30;;;;;;;2.77;0.67;;;15.60;99.90;;;;;;5054813;28;20589;-64
2022/05/26 04:41:59;;;;;;;2.87;0.73;;;15.70;99.90;;;;;;5054559;28;20225;-63
2022/05/26 04:44:26;;;;;;;2.20;0.77;;;15.70;99.90;;;;;;5054387;28;20296;-64
2022/05/26 04:46:54;;;;;;;2.20;0.80;;;15.80;99.90;;;;;;5054487;28;20233;-63
2022/05/26 04:49:20;;;;;;;3.23;0.70;;;16.00;99.90;;;;;;5054364;28;20202;-63
2022/05/26 04:51:47;;;;;;;0.90;0.50;;;16.20;99.90;;;;;;5054682;28;20202;-64
2022/05/26 04:54:14;;;;;;;1.63;0.50;;;16.50;99.90;;;;;;5054395;28;20258;-63
2022/05/26 04:56:40;;;;;;;1.90;0.50;;;16.80;99.90;;;;;;5054598;28;21565;-65
2022/05/26 04:59:07;;;;;;;2.13;0.70;;;17.00;99.90;;;;;;5054342;28;20665;-64
2022/05/26 05:01:34;;;;;;;2.17;0.60;;;17.20;99.90;;;;;;5054346;28;20303;-63
2022/05/26 05:04:02;;;;;;;4.38;0.73;;;17.60;99.90;;;;;;5053930;28;20205;-63
2022/05/26 05:06:29;;;;;;;1.23;0.52;;;17.90;99.90;;;;;;5054584;28;20209;-64
2022/05/26 05:08:56;;;;;;;2.08;0.60;;;18.20;99.90;;;;;;5054252;28;20205;-65
2022/05/26 05:11:22;;;;;;;2.65;0.80;;;18.40;99.70;;;;;;5054232;28;20203;-64
2022/05/26 05:13:49;;;;;;;1.27;0.70;;;18.60;99.40;;;;;;5054122;28;20205;-64
2022/05/26 05:16:22;;;;;;;1.85;0.80;;;19.00;98.50;;;;;;5054008;28;20259;-65
2022/05/26 05:18:50;;;;;;;1.38;0.45;;;19.70;97.70;;;;;;5059865;22;20283;-60
2022/05/26 05:21:24;;;;;;;1.45;0.50;;;20.60;96.30;;;;;;5034259;28;20222;-60
2022/05/26 05:24:00;;;;;;;1.48;0.35;;;21.70;94.60;;;;;;5034258;28;20206;-60
2022/05/26 05:26:30;;;;;;;1.48;0.55;;;21.80;93.60;;;;;;5034302;28;20206;-59
2022/05/26 05:29:02;;;;;;;5.05;0.75;;;21.60;93.20;;;;;;5033968;28;20740;-60
2022/05/26 05:31:34;;;;;;;2.13;0.57;;;21.70;93.30;;;;;;5034436;28;20206;-60
2022/05/26 05:34:03;;;;;;;4.00;0.70;;;23.10;91.40;;;;;;5034053;28;20232;-60
2022/05/26 05:36:34;;;;;;;2.83;1.33;;;24.50;87.80;;;;;;5034242;28;20206;-60
2022/05/26 05:39:03;;;;;;;1.75;1.10;;;25.60;84.10;;;;;;5033922;28;20640;-59
2022/05/26 05:41:32;;;;;;;3.00;0.80;;;27.00;76.30;;;;;;5034121;28;20268;-60
2022/05/26 05:44:00;;;;;;;4.75;0.75;;;28.40;69.90;;;;;;5034009;28;20490;-60
2022/05/26 05:46:33;;;;;;;2.50;0.55;;;30.10;64.50;;;;;;5033955;28;20280;-60
2022/05/26 05:49:01;;;;;;;3.42;0.70;;;31.00;59.50;;;;;;5033706;28;20229;-60
2022/05/26 05:51:28;;;;;;;1.65;0.60;;;31.70;57.40;;;;;;5033784;28;20656;-60
2022/05/26 05:53:56;;;;;;;2.13;0.80;;;31.50;56.10;;;;;;5033325;28;20217;-60
2022/05/26 05:56:23;;;;;;;1.77;0.57;;;31.30;55.20;;;;;;5033706;28;20245;-60
2022/05/26 05:58:50;;;;;;;2.30;0.60;;;30.40;56.10;;;;;;5033605;28;20280;-60
2022/05/26 06:01:17;;;;;;;1.60;0.43;;;29.20;58.00;;;;;;5033575;28;20320;-60
2022/05/26 06:03:43;;;;;;;1.35;0.35;;;28.10;59.70;;;;;;5033330;28;20210;-59
2022/05/26 06:06:10;;;;;;;1.95;0.90;;;27.00;62.10;;;;;;5033366;28;20720;-59
2022/05/26 06:08:38;;;;;;;0.68;0.45;;;26.00;64.30;;;;;;5033670;28;20237;-59
2022/05/26 06:11:06;;;;;;;1.75;0.90;;;25.50;66.50;;;;;;5033441;28;20673;-59
2022/05/26 06:13:32;;;;;;;2.30;0.73;;;25.20;67.60;;;;;;5033129;28;20217;-59
2022/05/26 06:15:59;;;;;;;0.95;0.50;;;25.10;68.60;;;;;;5033186;28;20214;-59
2022/05/26 06:18:26;;;;;;;1.85;0.65;;;25.10;68.70;;;;;;5033127;28;20320;-59
2022/05/26 06:21:01;;;;;;;1.40;0.63;;;24.90;68.80;;;;;;5032753;28;20230;-61
2022/05/26 06:23:28;;;;;;;2.20;1.00;;;24.50;70.50;;;;;;5033209;28;20232;-59
2022/05/26 06:25:54;;;;;;;0.98;0.47;;;24.10;72.10;;;;;;5033265;28;20210;-59
2022/05/26 06:31:08;;;;;;;2.60;0.52;;;23.30;74.70;;;;;;5033473;28;20701;-61
2022/05/26 06:39:06;;;;;;;2.25;0.90;;;22.40;78.30;;;;;;5007399;28;20198;-60
2022/05/26 06:44:19;;;;;;;2.05;0.40;;;22.00;80.00;;;;;;5032819;28;20205;-60
2022/05/26 06:46:46;;;;;;;0.98;0.65;;;22.00;80.50;;;;;;5032619;28;20248;-60
2022/05/26 06:49:13;;;;;;;2.33;0.93;;;22.00;80.50;;;;;;5032575;28;20673;-60
2022/05/26 06:51:42;;;;;;;1.77;0.90;;;22.20;81.00;;;;;;5032833;28;20203;-60
2022/05/26 06:54:09;;;;;;;1.83;0.47;;;22.20;81.10;;;;;;5032446;28;20248;-60
2022/05/26 06:56:36;;;;;;;2.55;0.60;;;22.30;80.90;;;;;;5032389;28;20202;-61
2022/05/26 06:59:03;;;;;;;1.30;1.08;;;22.40;81.40;;;;;;5032692;28;20241;-60
2022/05/26 07:01:31;;;;;;;1.25;0.90;;;22.60;81.30;;;;;;5032649;28;20234;-62
2022/05/26 07:03:58;;;;;;;1.77;0.60;;;22.60;81.60;;;;;;5032572;28;20202;-60
2022/05/26 07:06:27;;;;;;;1.10;0.50;;;22.60;80.90;;;;;;5032635;28;20214;-61
2022/05/26 07:08:54;;;;;;;1.55;0.68;;;22.50;81.00;;;;;;5032480;28;20234;-60
2022/05/26 07:11:21;;;;;;;3.63;1.90;;;22.70;81.10;;;;;;5032897;28;20313;-59
2022/05/26 07:13:48;;;;;;;2.28;0.80;;;22.90;80.80;;;;;;5032481;28;20206;-59
2022/05/26 07:16:16;;;;;;;0.85;0.50;;;23.10;80.60;;;;;;5032267;28;20206;-60
2022/05/26 07:18:44;;;;;;;0.60;0.40;;;23.40;79.70;;;;;;5032298;28;20656;-60
2022/05/26 07:21:12;;;;;;;1.33;0.50;;;23.80;79.10;;;;;;5032313;28;20226;-60
2022/05/26 07:23:39;;;;;;;1.13;0.50;;;24.00;78.60;;;;;;5031858;28;20217;-60
2022/05/26 07:26:07;;;;;;;1.08;0.50;;;24.30;77.30;;;;;;5032293;28;20206;-59
2022/05/26 07:28:34;;;;;;;2.30;0.95;;;24.30;76.20;;;;;;5032550;28;20234;-63
2022/05/26 07:31:01;;;;;;;3.92;0.85;;;24.60;75.50;;;;;;5030027;28;20217;-59
2022/05/26 07:33:27;;;;;;;2.88;0.73;;;25.40;72.70;;;;;;5031170;28;20217;-62
2022/05/26 07:35:55;;;;;;;2.15;0.60;;;26.30;69.60;;;;;;5032067;28;20225;-60
2022/05/26 07:41:18;;;;;;;1.42;0.93;;;27.70;65.20;;;;;;5027481;28;20233;-60
2022/05/26 07:43:47;;;;;;;2.40;0.90;;;28.70;63.90;;;;;;5031054;28;20228;-60
2022/05/26 07:46:15;;;;;;;1.80;0.60;;;29.20;62.50;;;;;;5031209;28;20745;-60
2022/05/26 07:48:42;;;;;;;1.70;0.68;;;29.30;60.80;;;;;;5031206;28;20222;-61
2022/05/26 07:51:10;;;;;;;2.00;0.80;;;28.90;61.80;;;;;;5032078;28;20206;-63
2022/05/26 07:53:36;;;;;;;3.53;0.80;;;28.50;62.70;;;;;;5030707;28;20206;-62
2022/05/26 07:56:03;;;;;;;2.22;0.73;;;28.00;63.30;;;;;;5030947;28;20202;-61
2022/05/26 07:58:30;;;;;;;1.20;0.70;;;27.50;64.50;;;;;;5029841;28;20260;-61
2022/05/26 08:00:57;;;;;;;1.02;0.60;;;27.00;65.40;;;;;;5032151;28;20213;-63
2022/05/26 08:03:24;;;;;;;0.98;0.60;;;26.80;65.50;;;;;;5032397;28;20262;-61
2022/05/26 08:05:51;;;;;;;1.83;0.50;;;26.50;65.80;;;;;;5032923;28;20297;-62
2022/05/26 08:08:19;;;;;;;1.05;0.60;;;26.20;66.10;;;;;;5033406;28;20605;-61
2022/05/26 08:10:46;;;;;;;3.33;0.63;;;26.00;67.40;;;;;;5033650;28;20670;-60
2022/05/26 08:13:13;;;;;;;1.33;0.57;;;25.80;67.30;;;;;;5032311;28;20203;-64
2022/05/26 08:15:40;;;;;;;1.50;0.65;;;25.60;68.60;;;;;;5031540;28;20585;-62
2022/05/26 08:18:07;;;;;;;0.77;0.55;;;25.30;68.80;;;;;;5032281;28;20237;-60
2022/05/26 08:20:34;;;;;;;1.55;0.55;;;25.10;69.80;;;;;;5032556;28;20504;-60
2022/05/26 08:23:01;;;;;;;2.70;0.80;;;25.00;71.30;;;;;;5032526;28;20234;-59
2022/05/26 08:25:29;;;;;;;2.80;0.55;;;25.00;72.30;;;;;;5031712;28;20210;-59
2022/05/26 08:27:56;;;;;;;1.70;0.60;;;25.10;72.30;;;;;;5031600;28;20320;-60
2022/05/26 08:30:23;;;;;;;1.75;0.65;;;25.20;72.20;;;;;;5031666;28;20206;-60
2022/05/26 08:32:53;;;;;;;2.08;0.75;;;25.20;71.20;;;;;;5032112;28;20670;-61
2022/05/26 08:35:19;;;;;;;3.92;0.70;;;24.80;72.30;;;;;;5032857;28;20234;-62
2022/05/26 08:37:46;;;;;;;0.95;0.50;;;24.40;72.60;;;;;;5033586;28;20309;-62
2022/05/26 08:40:25;;;;;;;1.60;0.80;;;24.10;73.90;;;;;;5033752;28;20210;-63
2022/05/26 08:42:53;;;;;;;4.53;1.30;;;24.10;73.60;;;;;;5032960;28;20229;-62
2022/05/26 08:45:19;;;;;;;1.85;0.80;;;24.10;73.60;;;;;;5036844;28;20385;-62
2022/05/26 08:47:48;;;;;;;2.38;0.95;;;24.20;73.70;;;;;;5036569;28;20230;-62
2022/05/26 08:50:17;;;;;;;3.88;0.90;;;24.00;73.50;;;;;;5038394;28;20210;-62
2022/05/26 08:52:49;;;;;;;2.97;1.50;;;23.50;75.10;;;;;;5038391;28;20210;-63
2022/05/26 08:55:19;;;;;;;1.63;0.57;;;23.40;76.30;;;;;;5037775;28;20217;-64
2022/05/26 08:57:53;;;;;;;2.20;0.90;;;23.60;76.00;;;;;;5036880;28;20229;-63
2022/05/26 09:00:25;;;;;;;2.22;0.50;;;23.30;76.20;;;;;;5037429;28;20682;-62
2022/05/26 09:02:55;;;;;;;4.45;2.53;;;23.20;76.40;;;;;;5035940;28;20245;-63
2022/05/26 09:05:22;;;;;;;1.95;0.95;;;23.30;76.20;;;;;;5036774;28;20210;-62
2022/05/26 09:13:34;;;;;;;2.95;0.70;;;23.80;75.20;;;;;;5035547;28;20285;-62
2022/05/26 09:16:04;;;;;;;3.03;1.80;;;23.80;74.60;;;;;;5035973;28;20263;-62
2022/05/26 09:18:31;;;;;;;4.68;0.98;;;23.80;75.20;;;;;;5036086;28;20258;-63
2022/05/26 09:21:14;;;;;;;2.75;0.88;;;24.00;75.40;;;;;;5035893;28;20671;-62
2022/05/26 09:23:44;;;;;;;4.88;1.15;;;24.00;75.00;;;;;;5035541;28;20225;-62
2022/05/26 09:26:16;;;;;;;2.35;0.90;;;24.20;75.00;;;;;;5035799;28;20639;-62
2022/05/26 09:28:44;;;;;;;4.07;1.60;;;24.40;75.50;;;;;;5034874;28;20226;-62
2022/05/26 09:31:25;;;;;;;3.63;1.20;;;24.70;75.00;;;;;;5034533;28;20210;-62
2022/05/26 09:34:08;;;;;;;1.20;0.80;;;25.00;74.20;;;;;;5034747;28;20206;-62
2022/05/26 09:36:40;;;;;;;2.53;0.60;;;25.10;72.40;;;;;;5035003;28;20217;-64
2022/05/26 09:39:08;;;;;;;2.55;1.15;;;25.50;72.40;;;;;;5035191;28;20232;-64
2022/05/26 09:41:40;;;;;;;2.58;0.93;;;25.80;72.10;;;;;;5034630;28;20210;-62
2022/05/26 09:44:24;;;;;;;1.50;0.77;;;25.70;70.10;;;;;;5034110;28;20202;-61
2022/05/26 09:46:54;;;;;;;1.17;0.68;;;25.40;71.30;;;;;;5034757;28;20210;-62
2022/05/26 09:49:24;;;;;;;1.42;0.70;;;25.60;71.10;;;;;;5034122;28;20202;-62
2022/05/26 09:51:51;;;;;;;4.72;0.80;;;25.80;70.30;;;;;;5034686;28;20202;-62
2022/05/26 09:54:25;;;;;;;2.40;0.80;;;25.50;71.30;;;;;;5034155;28;20206;-62
2022/05/26 09:56:52;;;;;;;1.33;0.70;;;25.30;71.70;;;;;;5033840;28;20213;-62
2022/05/26 09:59:24;;;;;;;0.90;0.70;;;25.50;71.90;;;;;;5034223;28;20210;-62
2022/05/26 10:01:59;;;;;;;1.38;0.63;;;25.60;71.20;;;;;;5033899;28;20709;-62
2022/05/26 10:04:53;;;;;;;2.53;0.80;;;25.40;70.80;;;;;;5033919;28;20212;-63
2022/05/26 10:07:30;;;;;;;6.07;0.75;;;25.50;71.00;;;;;;5033824;28;20265;-62
2022/05/26 10:10:06;;;;;;;2.30;0.88;;;25.70;70.60;;;;;;5033708;28;20209;-62
2022/05/26 10:12:43;;;;;;;3.33;0.80;;;25.90;69.40;;;;;;5033924;28;20217;-62
2022/05/26 10:15:17;;;;;;;2.92;0.90;;;25.70;69.80;;;;;;5033532;28;20206;-62
2022/05/26 10:18:00;;;;;;;3.50;1.00;;;25.60;71.10;;;;;;5033573;28;20245;-62
2022/05/26 10:20:37;;;;;;;3.53;0.93;;;25.30;71.20;;;;;;5033425;28;20228;-62
2022/05/26 10:23:19;;;;;;;3.20;0.93;;;25.20;72.90;;;;;;5032793;28;20649;-62
2022/05/26 10:25:55;;;;;;;3.22;1.30;;;25.10;72.30;;;;;;5033273;28;20291;-62
2022/05/26 10:28:51;;;;;;;2.70;0.80;;;24.90;72.60;;;;;;5033192;28;20654;-62
2022/05/26 10:31:31;;;;;;;5.30;1.52;;;24.60;73.70;;;;;;5033148;28;20619;-62
2022/05/26 10:34:10;;;;;;;3.08;1.80;;;24.20;74.70;;;;;;5032835;28;20206;-62
2022/05/26 10:36:50;;;;;;;1.80;0.80;;;24.20;75.50;;;;;;5033301;28;20263;-62
2022/05/26 10:39:29;;;;;;;5.20;1.85;;;24.20;74.70;;;;;;5032922;28;20216;-63
2022/05/26 10:42:00;;;;;;;2.63;1.30;;;24.30;74.80;;;;;;5033113;28;20213;-64
2022/05/26 10:44:31;;;;;;;8.50;4.18;;;24.80;74.00;;;;;;5032932;28;20210;-62
2022/05/26 10:47:07;;;;;;;2.40;1.42;;;25.30;73.10;;;;;;5033071;28;20320;-62
2022/05/26 10:49:43;;;;;;;2.42;1.33;;;25.80;71.90;;;;;;5032729;28;20639;-62
2022/05/26 10:52:15;;;;;;;4.53;1.17;;;26.20;70.30;;;;;;5032917;28;20191;-63
2022/05/26 10:54:49;;;;;;;2.15;0.70;;;26.30;70.30;;;;;;5033108;28;20233;-62
2022/05/26 10:57:20;;;;;;;1.38;0.60;;;26.40;69.70;;;;;;5033040;28;20221;-62
2022/05/26 10:59:51;;;;;;;4.00;0.70;;;26.40;69.30;;;;;;5033138;28;20206;-62
2022/05/26 11:02:25;;;;;;;2.13;0.98;;;26.70;69.90;;;;;;5032708;28;20667;-61
2022/05/26 11:04:57;;;;;;;4.07;1.15;;;27.10;68.20;;;;;;5032709;28;20210;-61
2022/05/26 11:07:31;;;;;;;1.88;0.88;;;27.40;66.70;;;;;;5032852;28;20222;-63
2022/05/26 11:10:03;;;;;;;2.75;0.80;;;27.60;66.70;;;;;;5032873;28;20606;-61
2022/05/26 11:12:35;;;;;;;2.90;1.38;;;27.70;66.80;;;;;;5033187;28;20293;-62
2022/05/26 11:17:57;;;;;;;1.75;1.05;;;27.50;66.30;;;;;;5055840;23;20236;-64
2022/05/26 11:20:28;;;;;;;3.17;1.38;;;27.40;66.50;;;;;;5032485;28;20568;-65
2022/05/26 11:23:02;;;;;;;15.95;6.38;;;27.20;66.70;;;;;;5029227;28;20230;-65
2022/05/26 11:25:32;;;;;;;9.32;6.30;;;27.00;67.00;;;;;;5031343;28;20277;-66
2022/05/26 11:28:04;;;;;;;3.85;2.08;;;26.70;67.30;;;;;;5031522;28;20641;-64
2022/05/26 11:36:21;;;;;;;2.97;1.35;;;26.80;68.00;;;;;;5031443;28;20197;-65
2022/05/26 11:38:51;;;;;;;1.30;0.82;;;27.10;66.50;;;;;;5031421;28;20303;-63
2022/05/26 11:41:27;;;;;;;1.45;0.60;;;27.20;66.30;;;;;;5031274;28;20205;-65
2022/05/26 11:44:03;;;;;;;2.10;0.80;;;27.40;65.80;;;;;;5030823;28;20253;-64
2022/05/26 11:46:50;;;;;;;4.90;1.55;;;27.70;66.00;;;;;;5031436;28;20206;-64
2022/05/26 11:49:59;;;;;;;5.43;1.02;;;27.60;65.40;;;;;;5031112;28;20228;-64
2022/05/26 11:52:48;;;;;;;2.50;1.05;;;27.70;65.90;;;;;;4982492;28;20206;-63
2022/05/26 11:55:19;;;;;;;4.07;0.70;;;27.70;65.80;;;;;;5030126;28;20210;-63
2022/05/26 11:57:53;;;;;;;2.95;0.80;;;27.60;66.60;;;;;;5030372;28;20287;-64
2022/05/26 12:00:23;;;;;;;2.47;0.90;;;27.20;66.70;;;;;;5030545;28;20675;-65
2022/05/26 12:02:51;;;;;;;1.98;0.70;;;27.20;67.40;;;;;;5029809;28;20280;-63
2022/05/26 12:05:46;;;;;;;1.95;0.85;;;27.00;67.00;;;;;;5030592;28;20206;-63
2022/05/26 12:08:39;;;;;;;2.08;1.00;;;26.30;68.30;;;;;;5030434;28;20257;-65
2022/05/26 12:11:09;;;;;;;1.52;0.88;;;26.00;69.70;;;;;;5029971;28;20309;-65
2022/05/26 12:13:38;;;;;;;2.25;1.10;;;25.80;71.40;;;;;;5029696;28;20666;-65
2022/05/26 12:16:22;;;;;;;4.43;1.05;;;25.60;71.20;;;;;;5030049;28;20218;-66
2022/05/26 12:18:52;;;;;;;3.05;0.93;;;25.40;72.20;;;;;;5032830;28;20659;-64
2022/05/26 12:21:36;;;;;;;3.40;1.08;;;25.10;72.40;;;;;;5035546;28;20256;-64
2022/05/26 12:24:36;;;;;;;1.27;1.00;;;25.00;73.10;;;;;;5034893;28;20230;-64
2022/05/26 12:27:05;;;;;;;3.10;2.08;;;25.30;73.80;;;;;;5034387;28;20206;-64
2022/05/26 12:30:04;;;;;;;2.90;1.90;;;25.60;72.70;;;;;;5034655;28;20233;-64
2022/05/26 12:32:34;;;;;;;1.85;0.88;;;26.00;71.00;;;;;;4973702;28;20367;-65
2022/05/26 12:35:13;;;;;;;2.85;0.95;;;26.10;70.90;;;;;;5021991;28;20268;-65
2022/05/26 12:37:54;;;;;;;2.97;0.90;;;25.90;72.40;;;;;;5034655;28;20233;-64
2022/05/26 12:40:34;;;;;;;4.25;2.28;;;25.50;73.40;;;;;;5034490;28;20268;-66
2022/05/26 12:43:43;;;;;;;3.03;1.02;;;25.20;74.60;;;;;;5034443;28;20229;-66
2022/05/26 12:46:33;;;;;;;4.38;1.50;;;25.20;74.60;;;;;;5034337;28;20209;-66
2022/05/26 12:49:10;;;;;;;2.65;1.00;;;25.30;75.20;;;;;;5034538;28;20225;-66
2022/05/26 12:51:39;;;;;;;4.13;1.00;;;25.40;73.60;;;;;;5034692;28;20213;-66
2022/05/26 12:54:09;;;;;;;1.58;0.80;;;25.40;74.20;;;;;;5034273;28;20206;-65
2022/05/26 12:56:48;;;;;;;2.53;1.10;;;25.60;74.70;;;;;;5034387;28;20210;-65
2022/05/26 12:59:23;;;;;;;1.63;1.00;;;25.80;73.80;;;;;;5034174;28;20652;-70
2022/05/26 13:01:49;;;;;;;2.47;1.00;;;26.00;73.00;;;;;;5034282;28;20255;-66
2022/05/26 13:04:20;;;;;;;2.47;1.00;;;26.20;71.50;;;;;;5034329;28;20381;-66
2022/05/26 13:06:50;;;;;;;4.20;1.35;;;26.40;71.20;;;;;;5034067;28;20210;-65
2022/05/26 13:09:20;;;;;;;2.58;1.08;;;26.60;70.60;;;;;;5033759;28;20229;-66
2022/05/26 13:11:51;;;;;;;2.70;1.23;;;26.70;69.90;;;;;;5033928;28;20637;-67
2022/05/26 13:14:34;;;;;;;1.90;1.08;;;26.80;70.00;;;;;;5033983;28;20207;-66
2022/05/26 13:17:03;;;;;;;2.85;0.88;;;26.90;68.40;;;;;;5034036;28;20210;-65
2022/05/26 13:19:31;;;;;;;3.22;1.00;;;26.80;68.60;;;;;;5034266;28;20592;-66
2022/05/26 13:21:59;;;;;;;1.58;0.82;;;26.70;69.10;;;;;;5034035;28;20206;-67
2022/05/26 13:24:28;;;;;;;1.08;0.80;;;26.80;69.70;;;;;;5034213;28;20233;-66
2022/05/26 13:26:57;;;;;;;2.63;1.05;;;26.90;68.80;;;;;;5034337;28;20210;-65
2022/05/26 13:29:27;;;;;;;1.67;1.00;;;27.00;68.90;;;;;;5033037;28;20222;-65
2022/05/26 13:34:45;;;;;;;3.72;0.85;;;27.00;69.80;;;;;;5033650;28;20283;-66
2022/05/26 13:37:17;;;;;;;2.03;1.10;;;26.90;70.10;;;;;;5033683;28;20213;-68
2022/05/26 13:39:44;;;;;;;2.03;0.93;;;26.90;70.10;;;;;;5033555;28;20269;-67
2022/05/26 13:42:12;;;;;;;3.05;1.10;;;26.90;69.70;;;;;;5033656;28;20206;-65
2022/05/26 13:44:44;;;;;;;3.10;1.10;;;26.70;69.90;;;;;;5033274;28;20599;-66
2022/05/26 13:47:13;;;;;;;2.35;1.30;;;26.60;70.40;;;;;;5033532;28;20688;-66
2022/05/26 13:49:43;;;;;;;2.17;1.00;;;26.30;69.80;;;;;;5033633;28;20260;-69
2022/05/26 13:52:15;;;;;;;4.75;1.08;;;26.00;70.40;;;;;;5033582;28;20238;-68